createdAt,value
2024-02-09T00:00:22.866Z,77.07
2024-02-09T00:02:55.268Z,76.83
2024-02-09T00:05:30.783Z,76.94
2024-02-09T00:08:03.813Z,76.93
2024-02-09T00:10:38.360Z,76.86
2024-02-09T00:13:12.935Z,77.09
2024-02-09T00:15:50.036Z,77.15
2024-02-09T00:18:23.998Z,76.96
2024-02-09T00:20:58.339Z,76.78
2024-02-09T00:23:30.633Z,76.56
2024-02-09T00:26:03.766Z,76.44
2024-02-09T00:28:36.247Z,76.57
2024-02-09T00:31:08.921Z,76.61
2024-02-09T00:33:42.447Z,76.70
2024-02-09T00:36:15.163Z,76.78
2024-02-09T00:38:48.965Z,77.00
2024-02-09T00:41:39.274Z,77.05
2024-02-09T00:44:12.192Z,76.91
2024-02-09T00:46:44.820Z,76.88
2024-02-09T00:49:35.438Z,77.24
2024-02-09T00:52:08.111Z,76.64
2024-02-09T00:54:40.311Z,76.79
2024-02-09T00:57:12.210Z,77.15
2024-02-09T00:59:45.135Z,76.82
2024-02-09T01:02:19.135Z,76.72
2024-02-09T01:04:52.549Z,76.98
2024-02-09T01:07:24.945Z,76.65
2024-02-09T01:09:59.348Z,76.84
2024-02-09T01:12:51.185Z,77.13
2024-02-09T01:15:41.942Z,77.07
2024-02-09T01:18:32.473Z,76.97
2024-02-09T01:21:40.111Z,77.04
2024-02-09T01:24:30.051Z,76.92
2024-02-09T01:27:21.731Z,77.16
2024-02-09T01:30:11.759Z,77.03
2024-02-09T01:33:01.412Z,77.11
2024-02-09T01:35:51.553Z,77.13
2024-02-09T01:38:42.766Z,77.13
2024-02-09T01:41:32.691Z,77.22
2024-02-09T01:44:22.883Z,77.21
2024-02-09T01:47:13.809Z,77.11
2024-02-09T01:50:04.200Z,77.22
2024-02-09T01:52:55.034Z,77.33
2024-02-09T01:55:46.014Z,77.49
2024-02-09T01:58:37.442Z,77.36
2024-02-09T02:01:28.684Z,77.54
2024-02-09T02:04:19.245Z,77.54
2024-02-09T02:07:09.488Z,77.87
2024-02-09T02:09:59.251Z,77.29
2024-02-09T02:12:50.513Z,77.09
2024-02-09T02:15:40.924Z,77.12
2024-02-09T02:18:31.231Z,76.96
2024-02-09T02:21:21.475Z,76.91
2024-02-09T02:24:14.523Z,76.13
2024-02-09T02:27:04.308Z,76.23
2024-02-09T02:29:54.162Z,76.25
2024-02-09T02:32:44.289Z,76.50
2024-02-09T02:35:34.282Z,76.47
2024-02-09T02:38:24.646Z,76.75
2024-02-09T02:41:15.488Z,76.94
2024-02-09T02:43:47.665Z,76.93
2024-02-09T02:46:20.658Z,77.07
2024-02-09T02:49:11.047Z,77.07
2024-02-09T02:52:01.500Z,77.04
2024-02-09T02:54:51.378Z,76.53
2024-02-09T02:57:41.491Z,76.29
2024-02-09T03:00:49.853Z,76.00
2024-02-09T03:03:39.738Z,76.14
2024-02-09T03:06:12.564Z,75.82
2024-02-09T03:08:48.281Z,76.01
2024-02-09T03:11:19.291Z,75.72
2024-02-09T03:13:52.094Z,75.74
2024-02-09T03:16:24.596Z,75.83
2024-02-09T03:18:57.673Z,75.79
2024-02-09T03:21:31.829Z,75.74
2024-02-09T03:24:05.185Z,75.58
2024-02-09T03:26:37.905Z,75.70
2024-02-09T03:29:11.070Z,75.73
2024-02-09T03:31:43.611Z,76.05
2024-02-09T03:34:15.967Z,76.40
2024-02-09T03:36:48.941Z,76.26
2024-02-09T03:39:40.042Z,76.09
2024-02-09T03:42:12.524Z,76.08
2024-02-09T03:44:46.103Z,76.29
2024-02-09T03:47:24.333Z,76.45
2024-02-09T03:49:59.534Z,76.37
2024-02-09T03:52:34.590Z,76.73
2024-02-09T03:55:08.979Z,76.81
2024-02-09T03:57:42.290Z,77.12
2024-02-09T04:00:18.101Z,77.10
2024-02-09T04:02:51.114Z,77.13
2024-02-09T04:05:24.508Z,77.50
2024-02-09T04:07:58.976Z,77.57
2024-02-09T04:10:42.459Z,77.66
2024-02-09T04:13:09.475Z,77.36
2024-02-09T04:15:42.873Z,77.26
2024-02-09T04:18:17.674Z,77.38
2024-02-09T04:20:51.156Z,77.15
2024-02-09T04:23:24.282Z,77.15
2024-02-09T04:25:58.680Z,77.41
2024-02-09T04:28:33.153Z,77.27
2024-02-09T04:31:07.523Z,77.20
2024-02-09T04:33:41.096Z,77.13
2024-02-09T04:36:15.216Z,77.16
2024-02-09T04:38:48.308Z,76.52
2024-02-09T04:41:21.339Z,76.47
2024-02-09T04:43:53.964Z,76.40
2024-02-09T04:46:28.043Z,76.51
2024-02-09T04:49:04.862Z,76.54
2024-02-09T04:51:47.687Z,76.36
2024-02-09T04:54:19.302Z,76.42
2024-02-09T04:56:53.239Z,76.35
2024-02-09T04:59:28.643Z,76.02
2024-02-09T05:02:01.862Z,75.97
2024-02-09T05:04:34.569Z,76.13
2024-02-09T05:07:10.252Z,75.96
2024-02-09T05:09:43.823Z,75.84
2024-02-09T05:12:16.046Z,75.67
2024-02-09T05:14:51.369Z,75.82
2024-02-09T05:17:25.540Z,75.38
2024-02-09T05:20:01.975Z,75.50
2024-02-09T05:22:35.137Z,75.54
2024-02-09T05:25:09.061Z,75.64
2024-02-09T05:27:41.206Z,75.98
2024-02-09T05:30:32.533Z,75.79
2024-02-09T05:33:05.817Z,75.63
2024-02-09T05:35:40.389Z,75.80
2024-02-09T05:38:14.408Z,75.66
2024-02-09T05:40:48.320Z,75.66
2024-02-09T05:43:21.319Z,75.74
2024-02-09T05:45:54.868Z,75.77
2024-02-09T05:48:28.197Z,75.81
2024-02-09T05:51:02.861Z,75.78
2024-02-09T05:53:34.858Z,75.69
2024-02-09T05:56:08.089Z,75.01
2024-02-09T05:58:41.817Z,74.60
2024-02-09T06:01:15.677Z,74.28
2024-02-09T06:03:48.366Z,74.29
2024-02-09T06:06:22.912Z,74.13
2024-02-09T06:08:57.581Z,73.27
2024-02-09T06:11:31.349Z,73.02
2024-02-09T06:14:05.244Z,72.99
2024-02-09T06:16:38.306Z,73.03
2024-02-09T06:19:11.534Z,72.74
2024-02-09T06:21:44.489Z,73.08
2024-02-09T06:24:20.926Z,73.20
2024-02-09T06:26:54.130Z,72.74
2024-02-09T06:29:29.689Z,72.41
2024-02-09T06:32:04.750Z,72.58
2024-02-09T06:34:37.964Z,72.20
2024-02-09T06:37:12.151Z,72.35
2024-02-09T06:39:44.020Z,72.56
2024-02-09T06:42:16.126Z,72.53
2024-02-09T06:44:49.264Z,72.25
2024-02-09T06:47:24.694Z,72.02
2024-02-09T06:49:57.639Z,71.81
2024-02-09T06:52:33.746Z,71.34
2024-02-09T06:55:09.938Z,71.48
2024-02-09T06:57:46.681Z,71.76
2024-02-09T07:00:20.573Z,71.16
2024-02-09T07:02:53.287Z,71.31
2024-02-09T07:05:25.908Z,71.23
2024-02-09T07:07:58.680Z,71.39
2024-02-09T07:10:31.721Z,70.91
2024-02-09T07:13:04.309Z,70.85
2024-02-09T07:15:36.335Z,71.06
2024-02-09T07:18:08.959Z,70.94
2024-02-09T07:20:43.972Z,70.79
2024-02-09T07:23:16.779Z,70.90
2024-02-09T07:26:11.758Z,71.23
2024-02-09T07:28:44.804Z,71.43
2024-02-09T07:31:18.399Z,71.83
2024-02-09T07:33:51.978Z,71.74
2024-02-09T07:36:26.766Z,71.59
2024-02-09T07:38:59.613Z,71.39
2024-02-09T07:41:33.024Z,71.16
2024-02-09T07:44:06.430Z,71.32
2024-02-09T07:46:39.873Z,71.24
2024-02-09T07:49:12.866Z,71.42
2024-02-09T07:51:45.521Z,71.49
2024-02-09T07:54:20.011Z,71.21
2024-02-09T07:56:53.532Z,71.27
2024-02-09T07:59:27.208Z,71.57
2024-02-09T08:01:59.988Z,71.96
2024-02-09T08:04:33.563Z,71.13
2024-02-09T08:07:08.076Z,70.26
2024-02-09T08:09:40.631Z,70.87
2024-02-09T08:12:15.829Z,70.37
2024-02-09T08:14:50.468Z,70.28
2024-02-09T08:17:22.947Z,70.31
2024-02-09T08:19:58.038Z,70.60
2024-02-09T08:22:32.429Z,70.69
2024-02-09T08:25:05.433Z,70.85
2024-02-09T08:27:39.930Z,71.15
2024-02-09T08:30:13.664Z,70.73
2024-02-09T08:32:46.270Z,69.66
2024-02-09T08:35:21.389Z,70.23
2024-02-09T08:37:54.212Z,70.63
2024-02-09T08:40:29.918Z,71.28
2024-02-09T08:43:03.188Z,70.89
2024-02-09T08:45:37.672Z,70.57
2024-02-09T08:48:11.004Z,69.97
2024-02-09T08:50:45.450Z,69.37
2024-02-09T08:53:36.042Z,69.42
2024-02-09T08:56:10.246Z,69.74
2024-02-09T08:58:43.370Z,68.83
2024-02-09T09:01:16.566Z,68.83
2024-02-09T09:03:49.794Z,69.07
2024-02-09T09:06:24.155Z,68.95
2024-02-09T09:08:57.374Z,69.73
2024-02-09T09:11:29.430Z,69.95
2024-02-09T09:14:26.641Z,68.84
2024-02-09T09:17:12.065Z,68.69
2024-02-09T09:19:35.929Z,69.51
2024-02-09T09:22:10.668Z,69.40
2024-02-09T09:24:43.576Z,69.05
2024-02-09T09:27:37.566Z,69.03
2024-02-09T09:30:11.587Z,68.28
2024-02-09T09:32:44.962Z,68.18
2024-02-09T09:35:17.960Z,68.06
2024-02-09T09:37:51.144Z,69.14
2024-02-09T09:40:26.488Z,68.71
2024-02-09T09:42:59.165Z,68.79
2024-02-09T09:45:32.307Z,68.12
2024-02-09T09:48:09.412Z,67.95
2024-02-09T09:50:43.753Z,68.44
2024-02-09T09:53:17.191Z,67.93
2024-02-09T09:55:51.076Z,67.48
2024-02-09T09:58:27.484Z,68.43
2024-02-09T10:01:23.063Z,68.91
2024-02-09T10:03:57.195Z,69.72
2024-02-09T10:06:30.568Z,68.63
2024-02-09T10:09:05.785Z,68.74
2024-02-09T10:11:43.090Z,69.28
2024-02-09T10:14:17.834Z,69.61
2024-02-09T10:16:52.090Z,68.24
2024-02-09T10:19:25.750Z,68.59
2024-02-09T10:22:00.918Z,69.70
2024-02-09T10:24:35.251Z,67.99
2024-02-09T10:27:10.747Z,69.20
2024-02-09T10:29:45.211Z,68.34
2024-02-09T10:32:18.919Z,67.73
2024-02-09T10:34:53.797Z,68.55
2024-02-09T10:37:31.690Z,68.60
2024-02-09T10:40:02.846Z,68.63
2024-02-09T10:42:55.026Z,69.08
2024-02-09T10:45:29.870Z,68.31
2024-02-09T10:48:05.174Z,68.43
2024-02-09T10:50:39.254Z,68.18
2024-02-09T10:53:14.196Z,67.37
2024-02-09T10:55:47.845Z,66.82
2024-02-09T10:58:21.816Z,67.36
2024-02-09T11:00:55.679Z,67.49
2024-02-09T11:03:29.550Z,66.07
2024-02-09T11:06:06.362Z,66.62
2024-02-09T11:08:40.468Z,67.83
2024-02-09T11:11:15.709Z,68.52
2024-02-09T11:13:48.558Z,66.02
2024-02-09T11:16:25.689Z,65.51
2024-02-09T11:18:58.622Z,64.10
2024-02-09T11:21:33.637Z,66.33
2024-02-09T11:24:07.455Z,66.02
2024-02-09T11:27:01.938Z,64.75
2024-02-09T11:29:37.180Z,65.40
2024-02-09T11:32:10.385Z,65.23
2024-02-09T11:34:48.547Z,65.81
2024-02-09T11:37:22.663Z,63.79
2024-02-09T11:43:06.221Z,64.85
2024-02-09T11:45:39.339Z,63.63
2024-02-09T11:48:14.007Z,62.84
2024-02-09T11:50:48.225Z,62.71
2024-02-09T11:53:21.983Z,64.03
2024-02-09T11:55:55.261Z,64.61
2024-02-09T11:58:28.329Z,63.52
2024-02-09T12:01:01.204Z,63.40
2024-02-09T12:06:24.541Z,63.46
2024-02-09T12:08:59.252Z,64.20
2024-02-09T12:11:33.769Z,63.51
2024-02-09T12:14:07.677Z,62.65
2024-02-09T12:16:40.316Z,62.18
2024-02-09T12:19:15.364Z,61.87
2024-02-09T12:21:49.184Z,61.56
2024-02-09T12:24:21.987Z,61.85
2024-02-09T12:26:55.897Z,61.72
2024-02-09T12:29:30.224Z,62.38
2024-02-09T12:32:05.562Z,61.96
2024-02-09T12:34:46.997Z,62.15
2024-02-09T12:37:21.494Z,62.59
2024-02-09T12:39:59.563Z,62.98
2024-02-09T12:42:34.928Z,63.01
2024-02-09T12:45:08.329Z,62.17
2024-02-09T12:47:43.143Z,62.12
2024-02-09T12:50:18.548Z,62.86
2024-02-09T12:52:52.287Z,62.90
2024-02-09T12:55:26.977Z,63.23
2024-02-09T12:57:59.183Z,63.64
2024-02-09T13:00:35.109Z,63.95
2024-02-09T13:03:08.924Z,63.71
2024-02-09T13:05:42.844Z,63.39
2024-02-09T13:08:16.343Z,62.96
2024-02-09T13:10:50.091Z,63.46
2024-02-09T13:13:24.177Z,63.59
2024-02-09T13:16:14.844Z,64.03
2024-02-09T13:18:48.607Z,64.12
2024-02-09T13:21:24.634Z,64.48
2024-02-09T13:24:00.164Z,64.61
2024-02-09T13:26:34.519Z,64.98
2024-02-09T13:29:07.694Z,65.23
2024-02-09T13:31:58.351Z,65.25
2024-02-09T13:34:32.064Z,65.78
2024-02-09T13:37:05.855Z,65.62
2024-02-09T13:39:37.842Z,65.50
2024-02-09T13:42:11.245Z,65.98
2024-02-09T13:44:44.357Z,65.69
2024-02-09T13:47:18.830Z,65.81
2024-02-09T13:49:51.506Z,66.06
2024-02-09T13:52:24.731Z,66.17
2024-02-09T13:55:00.688Z,66.40
2024-02-09T13:57:34.969Z,66.63
2024-02-09T14:00:09.290Z,66.85
2024-02-09T14:02:42.474Z,67.04
2024-02-09T14:05:18.664Z,67.35
2024-02-09T14:07:53.399Z,67.42
2024-02-09T14:10:27.637Z,67.44
2024-02-09T14:13:01.453Z,67.51
2024-02-09T14:15:36.095Z,67.39
2024-02-09T14:18:11.917Z,67.52
2024-02-09T14:20:47.141Z,67.70
2024-02-09T14:23:20.375Z,67.78
2024-02-09T14:25:54.295Z,68.04
2024-02-09T14:28:27.896Z,67.76
2024-02-09T14:31:02.512Z,67.83
2024-02-09T14:33:36.361Z,67.75
2024-02-09T14:36:11.861Z,67.91
2024-02-09T14:41:36.786Z,68.02
2024-02-09T14:44:28.814Z,68.20
2024-02-09T14:47:04.343Z,68.35
2024-02-09T14:49:37.810Z,68.47
2024-02-09T14:52:11.128Z,68.51
2024-02-09T14:55:02.702Z,68.70
2024-02-09T14:57:37.458Z,69.05
2024-02-09T15:00:29.405Z,68.83
2024-02-09T15:03:09.727Z,68.79
2024-02-09T15:05:44.295Z,68.92
2024-02-09T15:08:19.305Z,68.15
2024-02-09T15:10:52.253Z,67.86
2024-02-09T15:13:27.271Z,67.53
2024-02-09T15:16:01.081Z,67.86
2024-02-09T15:18:34.626Z,67.87
2024-02-09T15:21:09.067Z,67.94
2024-02-09T15:24:01.553Z,68.42
2024-02-09T15:26:36.988Z,68.36
2024-02-09T15:29:10.295Z,68.36
2024-02-09T15:31:44.037Z,68.67
2024-02-09T15:34:19.143Z,67.15
2024-02-09T15:36:53.282Z,67.00
2024-02-09T15:39:30.977Z,67.02
2024-02-09T15:42:05.321Z,67.04
2024-02-09T15:44:40.655Z,66.78
2024-02-09T15:47:14.884Z,67.02
2024-02-09T15:49:48.326Z,67.38
2024-02-09T15:52:26.118Z,67.54
2024-02-09T15:55:00.459Z,67.12
2024-02-09T15:57:34.655Z,67.18
2024-02-09T16:00:25.105Z,67.19
2024-02-09T16:03:00.015Z,66.91
2024-02-09T16:05:33.112Z,66.93
2024-02-09T16:08:07.495Z,66.49
2024-02-09T16:10:47.307Z,66.61
2024-02-09T16:13:21.937Z,66.31
2024-02-09T16:15:55.453Z,66.23
2024-02-09T16:18:29.667Z,66.49
2024-02-09T16:21:03.087Z,66.49
2024-02-09T16:23:36.169Z,66.68
2024-02-09T16:26:08.877Z,67.08
2024-02-09T16:28:42.281Z,67.58
2024-02-09T16:31:16.249Z,66.93
2024-02-09T16:33:51.173Z,67.12
2024-02-09T16:36:26.123Z,66.80
2024-02-09T16:38:59.291Z,67.29
2024-02-09T16:41:32.245Z,67.44
2024-02-09T16:44:06.656Z,67.53
2024-02-09T16:46:40.844Z,67.69
2024-02-09T16:49:15.791Z,67.54
2024-02-09T16:51:48.517Z,68.09
2024-02-09T16:54:21.687Z,68.68
2024-02-09T16:56:54.201Z,68.75
2024-02-09T16:59:26.368Z,68.72
2024-02-09T17:01:58.299Z,68.32
2024-02-09T17:04:29.975Z,68.17
2024-02-09T17:07:01.496Z,67.41
2024-02-09T17:09:32.876Z,67.62
2024-02-09T17:12:04.616Z,67.17
2024-02-09T17:14:36.531Z,67.40
2024-02-09T17:17:08.805Z,67.61
2024-02-09T17:19:40.509Z,67.13
2024-02-09T17:22:12.104Z,67.47
2024-02-09T17:24:43.630Z,67.39
2024-02-09T17:27:15.986Z,67.76
2024-02-09T17:29:47.383Z,68.03
2024-02-09T17:32:19.202Z,68.28
2024-02-09T17:34:51.721Z,68.29
2024-02-09T17:37:23.309Z,68.22
2024-02-09T17:39:55.923Z,68.29
2024-02-09T17:42:28.292Z,68.22
2024-02-09T17:44:59.644Z,68.72
2024-02-09T17:47:31.486Z,68.59
2024-02-09T17:50:04.027Z,68.98
2024-02-09T17:52:35.576Z,68.85
2024-02-09T17:55:07.953Z,68.90
2024-02-09T17:57:39.798Z,68.96
2024-02-09T18:00:11.420Z,69.38
2024-02-09T18:02:44.394Z,69.37
2024-02-09T18:05:16.866Z,69.39
2024-02-09T18:07:48.425Z,69.55
2024-02-09T18:10:20.178Z,69.59
2024-02-09T18:12:52.218Z,69.51
2024-02-09T18:15:25.858Z,69.51
2024-02-09T18:17:57.539Z,69.37
2024-02-09T18:20:29.592Z,69.26
2024-02-09T18:23:01.070Z,69.23
2024-02-09T18:25:50.526Z,69.37
2024-02-09T18:28:23.358Z,69.29
2024-02-09T18:30:57.002Z,69.55
2024-02-09T18:33:29.750Z,69.67
2024-02-09T18:36:02.694Z,69.91
2024-02-09T18:38:34.603Z,70.00
2024-02-09T18:41:05.886Z,69.94
2024-02-09T18:43:38.052Z,69.95
2024-02-09T18:46:10.999Z,69.94
2024-02-09T18:48:42.611Z,69.90
2024-02-09T18:51:14.855Z,69.65
2024-02-09T18:53:46.120Z,69.47
2024-02-09T18:56:17.984Z,69.25
2024-02-09T18:58:49.422Z,69.68
2024-02-09T19:01:22.788Z,69.76
2024-02-09T19:03:55.044Z,69.76
2024-02-09T19:06:27.860Z,69.89
2024-02-09T19:08:59.990Z,69.60
2024-02-09T19:11:32.487Z,69.47
2024-02-09T19:14:05.424Z,69.69
2024-02-09T19:16:40.139Z,69.36
2024-02-09T19:19:12.735Z,69.00
2024-02-09T19:21:44.488Z,69.03
2024-02-09T19:24:16.119Z,69.14
2024-02-09T19:26:48.610Z,69.26
2024-02-09T19:29:20.937Z,69.43
2024-02-09T19:31:54.099Z,69.32
2024-02-09T19:34:27.157Z,69.14
2024-02-09T19:36:58.422Z,69.39
2024-02-09T19:39:31.190Z,69.64
2024-02-09T19:42:03.012Z,69.65
2024-02-09T19:44:34.401Z,69.74
2024-02-09T19:47:07.340Z,69.94
2024-02-09T19:49:38.718Z,70.16
2024-02-09T19:52:11.474Z,70.10
2024-02-09T19:54:43.158Z,70.22
2024-02-09T19:57:14.584Z,70.14
2024-02-09T19:59:47.811Z,70.24
2024-02-09T20:02:27.913Z,69.97
2024-02-09T20:04:54.738Z,69.97
2024-02-09T20:07:28.221Z,69.95
2024-02-09T20:09:59.857Z,69.92
2024-02-09T20:12:32.990Z,69.94
2024-02-09T20:15:04.150Z,70.18
2024-02-09T20:17:36.362Z,70.16
2024-02-09T20:20:10.434Z,70.31
2024-02-09T20:22:41.871Z,70.29
2024-02-09T20:25:15.255Z,70.50
2024-02-09T20:27:49.463Z,70.79
2024-02-09T20:30:20.764Z,70.70
2024-02-09T20:32:53.569Z,70.64
2024-02-09T20:35:26.100Z,70.61
2024-02-09T20:37:57.833Z,70.71
2024-02-09T20:40:29.624Z,70.74
2024-02-09T20:43:01.858Z,70.64
2024-02-09T20:45:35.146Z,70.75
2024-02-09T20:48:10.037Z,70.81
2024-02-09T20:50:43.228Z,70.74
2024-02-09T20:53:16.247Z,70.91
2024-02-09T20:55:47.516Z,70.77
2024-02-09T20:58:20.528Z,70.84
2024-02-09T21:00:52.583Z,71.00
2024-02-09T21:03:24.299Z,71.12
2024-02-09T21:05:56.191Z,71.18
2024-02-09T21:08:28.222Z,71.22
2024-02-09T21:10:59.723Z,71.10
2024-02-09T21:13:31.693Z,71.27
2024-02-09T21:16:03.284Z,71.36
2024-02-09T21:18:36.341Z,71.18
2024-02-09T21:21:08.698Z,71.03
2024-02-09T21:23:41.815Z,71.32
2024-02-09T21:26:14.503Z,71.37
2024-02-09T21:28:46.228Z,71.55
2024-02-09T21:31:19.417Z,71.35
2024-02-09T21:33:51.289Z,71.26
2024-02-09T21:36:23.845Z,71.11
2024-02-09T21:38:56.139Z,71.07
2024-02-09T21:41:27.301Z,71.15
2024-02-09T21:43:59.243Z,71.20
2024-02-09T21:46:31.017Z,71.34
2024-02-09T21:49:03.929Z,71.21
2024-02-09T21:51:35.320Z,71.21
2024-02-09T21:54:08.048Z,71.35
2024-02-09T21:56:39.584Z,71.36
2024-02-09T21:59:13.891Z,71.28
2024-02-09T22:01:45.203Z,71.30
2024-02-09T22:04:17.454Z,71.30
2024-02-09T22:06:48.524Z,71.19
2024-02-09T22:09:20.930Z,71.24
2024-02-09T22:11:55.054Z,71.37
2024-02-09T22:14:27.139Z,71.49
2024-02-09T22:16:59.033Z,71.32
2024-02-09T22:19:30.586Z,71.53
2024-02-09T22:22:03.201Z,71.77
2024-02-09T22:24:35.365Z,71.68
2024-02-09T22:27:07.618Z,71.49
2024-02-09T22:29:39.235Z,71.47
2024-02-09T22:32:11.089Z,71.53
2024-02-09T22:34:44.967Z,71.70
2024-02-09T22:37:16.381Z,71.69
2024-02-09T22:39:47.656Z,71.70
2024-02-09T22:42:19.552Z,71.63
2024-02-09T22:44:51.070Z,71.81
2024-02-09T22:47:24.108Z,71.76
2024-02-09T22:49:55.146Z,71.72
2024-02-09T22:52:27.347Z,71.67
2024-02-09T22:55:00.308Z,71.61
2024-02-09T22:57:31.769Z,71.65
2024-02-09T23:00:05.505Z,71.73
2024-02-09T23:02:37.700Z,71.78
2024-02-09T23:05:09.220Z,71.76
2024-02-09T23:07:41.220Z,72.04
2024-02-09T23:10:12.983Z,71.96
2024-02-09T23:12:45.589Z,71.97
2024-02-09T23:15:20.923Z,71.99
2024-02-09T23:17:52.534Z,72.11
2024-02-09T23:20:25.423Z,72.24
2024-02-09T23:22:57.138Z,72.27
2024-02-09T23:25:28.568Z,72.06
2024-02-09T23:28:00.103Z,72.04
2024-02-09T23:30:32.229Z,72.10
2024-02-09T23:33:03.771Z,72.17
2024-02-09T23:35:35.381Z,72.16
2024-02-09T23:38:06.802Z,72.02
2024-02-09T23:40:38.779Z,71.91
2024-02-09T23:43:11.255Z,71.93
2024-02-09T23:45:43.135Z,71.86
2024-02-09T23:48:14.967Z,71.88
2024-02-09T23:50:48.953Z,71.79
2024-02-09T23:53:21.069Z,71.80
2024-02-09T23:55:54.382Z,72.06
2024-02-09T23:58:27.671Z,72.11
